Time;durP1;ratioP1;P1;durP2;ratioP2;P2;SDS_P1;SDS_P2;PMS_P1;PMS_P2;Temp;Humidity;BMP_temperature;BMP_pressure;BME280_temperature;BME280_humidity;BME280_pressure;Samples;Min_cycle;Max_cycle;Signal;HPM_P1;HPM_P2
2023/04/04 00:02:03;;;;;;;;;;;;;;;6.18;nan;100405.69;4946925;29;19965;-89
2023/04/04 00:04:48;;;;;;;;;;;;;;;6.14;nan;100402.53;4946850;29;19922;-90
2023/04/04 00:07:32;;;;;;;;;;;;;;;6.13;nan;100405.28;4946373;29;20014;-90
2023/04/04 00:10:16;;;;;;;;;;;;;;;5.94;nan;100412.03;4946293;29;20393;-90
2023/04/04 00:13:01;;;;;;;;;;;;;;;6.04;nan;100409.50;4946738;29;19924;-90
2023/04/04 00:15:45;;;;;;;;;;;;;;;5.99;nan;100409.03;4946581;29;20012;-89
2023/04/04 00:18:30;;;;;;;;;;;;;;;5.87;nan;100405.69;4945642;29;19937;-89
2023/04/04 00:21:13;;;;;;;;;;;;;;;5.82;nan;100400.84;4945607;29;19965;-89
2023/04/04 00:23:58;;;;;;;;;;;;;;;5.83;nan;100405.13;4945728;29;19921;-89
2023/04/04 00:26:42;;;;;;;;;;;;;;;5.83;nan;100396.47;4945286;29;19920;-89
2023/04/04 00:29:26;;;;;;;;;;;;;;;5.78;nan;100396.88;4945306;29;19930;-89
2023/04/04 00:32:10;;;;;;;;;;;;;;;5.78;nan;100396.88;4945358;29;20017;-90
2023/04/04 00:34:56;;;;;;;;;;;;;;;5.70;nan;100399.31;4945420;29;19921;-90
2023/04/04 00:37:40;;;;;;;;;;;;;;;5.65;nan;100401.44;4907252;29;19965;-89
2023/04/04 00:40:24;;;;;;;;;;;;;;;5.61;nan;100400.91;4958816;29;19922;-90
2023/04/04 00:43:08;;;;;;;;;;;;;;;5.60;nan;100401.00;4945113;29;19978;-90
2023/04/04 00:45:52;;;;;;;;;;;;;;;5.52;nan;100401.66;4945610;29;19921;-89
2023/04/04 00:48:36;;;;;;;;;;;;;;;5.52;nan;100399.88;4945938;29;20307;-90
2023/04/04 00:51:20;;;;;;;;;;;;;;;5.51;nan;100405.22;4946425;29;19990;-90
2023/04/04 00:54:04;;;;;;;;;;;;;;;5.43;nan;100398.03;4946679;29;19946;-89
2023/04/04 00:56:53;;;;;;;;;;;;;;;5.45;nan;100396.13;4945853;29;19965;-90
2023/04/04 00:59:38;;;;;;;;;;;;;;;5.46;nan;100400.38;4946276;29;19920;-89
2023/04/04 01:02:22;;;;;;;;;;;;;;;5.43;nan;100398.03;4946345;29;19917;-89
2023/04/04 01:05:07;;;;;;;;;;;;;;;5.45;nan;100390.91;4946011;29;19920;-89
2023/04/04 01:07:51;;;;;;;;;;;;;;;5.44;nan;100389.25;4945500;29;19964;-90
2023/04/04 01:10:35;;;;;;;;;;;;;;;5.33;nan;100386.75;4945988;29;19922;-89
2023/04/04 01:13:20;;;;;;;;;;;;;;;5.32;nan;100380.69;4945475;29;19942;-90
2023/04/04 01:16:04;;;;;;;;;;;;;;;5.36;nan;100376.06;4945687;29;19921;-90
2023/04/04 01:18:49;;;;;;;;;;;;;;;5.25;nan;100376.97;4945916;29;19914;-90
2023/04/04 01:21:35;;;;;;;;;;;;;;;5.14;nan;100377.84;4945140;29;19921;-89
2023/04/04 01:24:20;;;;;;;;;;;;;;;5.12;nan;100374.53;4944954;29;20392;-90
2023/04/04 01:27:04;;;;;;;;;;;;;;;5.14;nan;100372.63;4944501;29;19921;-89
2023/04/04 01:29:48;;;;;;;;;;;;;;;5.05;nan;100371.63;4944418;29;19925;-89
2023/04/04 01:32:36;;;;;;;;;;;;;;;5.06;nan;100370.66;4944298;29;20008;-89
2023/04/04 01:35:27;;;;;;;;;;;;;;;5.03;nan;100364.88;4944486;29;19922;-90
2023/04/04 01:38:12;;;;;;;;;;;;;;;5.05;nan;100357.75;4944654;29;19923;-90
2023/04/04 01:41:00;;;;;;;;;;;;;;;5.05;nan;100352.56;4945320;29;19938;-89
2023/04/04 01:43:45;;;;;;;;;;;;;;;4.99;nan;100349.50;4944185;29;19921;-89
2023/04/04 01:46:31;;;;;;;;;;;;;;;4.94;nan;100351.66;4944824;29;20004;-91
2023/04/04 01:49:15;;;;;;;;;;;;;;;4.96;nan;100349.78;4944777;29;20012;-90
2023/04/04 01:52:00;;;;;;;;;;;;;;;4.92;nan;100337.97;4944510;29;20395;-89
2023/04/04 01:54:44;;;;;;;;;;;;;;;4.88;nan;100338.34;4944691;29;19922;-90
2023/04/04 01:57:28;;;;;;;;;;;;;;;4.92;nan;100332.75;4943971;29;19920;-90
2023/04/04 02:00:14;;;;;;;;;;;;;;;4.91;nan;100323.28;4944439;29;20013;-89
2023/04/04 02:02:59;;;;;;;;;;;;;;;4.91;nan;100320.66;4940527;29;20424;-90
2023/04/04 02:05:43;;;;;;;;;;;;;;;4.85;nan;100322.03;4944470;29;19965;-89
2023/04/04 02:08:27;;;;;;;;;;;;;;;4.86;nan;100320.22;4944280;29;19924;-89
2023/04/04 02:11:11;;;;;;;;;;;;;;;4.85;nan;100334.19;4944273;29;20053;-90
2023/04/04 02:13:56;;;;;;;;;;;;;;;4.53;nan;100291.66;4944199;29;19930;-89
2023/04/04 02:16:40;;;;;;;;;;;;;;;4.79;nan;100339.91;4943198;29;19921;-88
2023/04/04 02:19:24;;;;;;;;;;;;;;;4.72;nan;100335.22;4944303;29;20416;-89
2023/04/04 02:22:08;;;;;;;;;;;;;;;4.53;nan;100333.25;4943928;29;19921;-91
2023/04/04 02:24:56;;;;;;;;;;;;;;;4.64;nan;100339.38;4944268;29;20423;-88
2023/04/04 02:27:40;;;;;;;;;;;;;;;4.68;nan;100331.19;4944634;29;19921;-89
2023/04/04 02:30:24;;;;;;;;;;;;;;;4.61;nan;100334.41;4944317;29;19938;-88
2023/04/04 02:33:08;;;;;;;;;;;;;;;4.67;nan;100333.94;4943762;29;19961;-89
2023/04/04 02:35:52;;;;;;;;;;;;;;;4.69;nan;100321.63;4944249;29;19921;-89
2023/04/04 02:38:36;;;;;;;;;;;;;;;4.68;nan;100323.38;4943744;29;19929;-89
2023/04/04 02:41:20;;;;;;;;;;;;;;;4.65;nan;100315.81;4944682;29;19922;-90
2023/04/04 02:44:04;;;;;;;;;;;;;;;4.68;nan;100319.97;4943318;29;19942;-89
2023/04/04 02:46:50;;;;;;;;;;;;;;;4.64;nan;100318.56;4943674;29;19921;-90
2023/04/04 02:49:34;;;;;;;;;;;;;;;4.61;nan;100314.44;4943364;29;20087;-90
2023/04/04 02:52:19;;;;;;;;;;;;;;;4.58;nan;100310.28;4943849;29;19930;-89
2023/04/04 02:55:03;;;;;;;;;;;;;;;4.50;nan;100317.06;4943257;29;19918;-90
2023/04/04 02:57:51;;;;;;;;;;;;;;;4.31;nan;100318.53;4943398;29;19921;-89
2023/04/04 03:00:35;;;;;;;;;;;;;;;4.26;nan;100316.31;4942539;29;20061;-89
2023/04/04 03:03:19;;;;;;;;;;;;;;;4.31;nan;100313.31;4943072;29;19981;-89
2023/04/04 03:06:03;;;;;;;;;;;;;;;4.27;nan;100314.53;4943021;29;19961;-88
2023/04/04 03:08:47;;;;;;;;;;;;;;;4.24;nan;100312.19;4942663;29;19924;-89
2023/04/04 03:11:31;;;;;;;;;;;;;;;4.10;nan;100306.28;4942722;29;19922;-89
2023/04/04 03:14:15;;;;;;;;;;;;;;;4.00;nan;100308.78;4942798;29;19964;-90
2023/04/04 03:16:59;;;;;;;;;;;;;;;3.95;nan;100302.31;4942536;29;20016;-89
2023/04/04 03:19:42;;;;;;;;;;;;;;;3.89;nan;100292.38;4942689;29;20443;-90
2023/04/04 03:22:26;;;;;;;;;;;;;;;3.86;nan;100294.28;4942638;29;19972;-91
2023/04/04 03:25:10;;;;;;;;;;;;;;;3.86;nan;100288.28;4942396;29;20387;-90
2023/04/04 03:27:54;;;;;;;;;;;;;;;3.83;nan;100291.09;4942494;28;19924;-89
2023/04/04 03:30:38;;;;;;;;;;;;;;;3.77;nan;100292.41;4946289;29;20012;-89
2023/04/04 03:33:22;;;;;;;;;;;;;;;3.78;nan;100295.81;4959498;29;19925;-89
2023/04/04 03:36:12;;;;;;;;;;;;;;;3.84;nan;100296.16;4946986;29;19918;-90
2023/04/04 03:38:56;;;;;;;;;;;;;;;3.88;nan;100301.13;4946101;29;19921;-90
2023/04/04 03:41:40;;;;;;;;;;;;;;;4.01;nan;100294.03;4946345;29;20387;-89
2023/04/04 03:44:24;;;;;;;;;;;;;;;4.02;nan;100303.47;4945723;29;19921;-89
2023/04/04 03:47:09;;;;;;;;;;;;;;;3.92;nan;100292.97;4946947;29;19942;-88
2023/04/04 03:49:54;;;;;;;;;;;;;;;3.94;nan;100295.47;4946327;29;20440;-89
2023/04/04 03:52:39;;;;;;;;;;;;;;;3.97;nan;100295.22;4946203;29;20392;-90
2023/04/04 03:55:23;;;;;;;;;;;;;;;4.00;nan;100293.19;4960102;29;19936;-90
2023/04/04 03:58:07;;;;;;;;;;;;;;;3.96;nan;100288.38;4946424;29;19922;-89
2023/04/04 04:00:51;;;;;;;;;;;;;;;3.96;nan;100296.16;4946524;29;20015;-89
2023/04/04 04:03:34;;;;;;;;;;;;;;;3.99;nan;100291.53;4945910;29;19946;-90
2023/04/04 04:06:19;;;;;;;;;;;;;;;4.05;nan;100289.44;4945721;29;20057;-89
2023/04/04 04:09:02;;;;;;;;;;;;;;;4.08;nan;100281.38;4945933;29;19941;-89
2023/04/04 04:11:47;;;;;;;;;;;;;;;4.03;nan;100278.31;4945496;29;19928;-89
2023/04/04 04:14:30;;;;;;;;;;;;;;;4.17;nan;100269.44;4945432;29;19964;-89
2023/04/04 04:17:14;;;;;;;;;;;;;;;4.20;nan;100264.81;4944852;29;19921;-90
2023/04/04 04:19:58;;;;;;;;;;;;;;;4.14;nan;100273.94;4945735;29;19961;-89
2023/04/04 04:22:48;;;;;;;;;;;;;;;4.20;nan;100264.00;4945776;29;19937;-89
2023/04/04 04:25:32;;;;;;;;;;;;;;;4.16;nan;100268.59;4945229;29;19921;-90
2023/04/04 04:28:16;;;;;;;;;;;;;;;4.07;nan;100270.16;4945778;29;20296;-90
2023/04/04 04:31:07;;;;;;;;;;;;;;;4.08;nan;100264.00;4945426;29;19981;-90
2023/04/04 04:33:51;;;;;;;;;;;;;;;4.09;nan;100262.25;4945298;29;20281;-88
2023/04/04 04:36:35;;;;;;;;;;;;;;;4.03;nan;100263.56;4945323;29;19921;-90
2023/04/04 04:39:19;;;;;;;;;;;;;;;3.96;nan;100257.19;4944982;28;19921;-91
2023/04/04 04:42:03;;;;;;;;;;;;;;;4.03;nan;100267.91;4945225;29;19981;-90
2023/04/04 04:44:47;;;;;;;;;;;;;;;4.02;nan;100271.47;4945782;29;19966;-89
2023/04/04 04:47:31;;;;;;;;;;;;;;;4.00;nan;100276.78;4945774;29;19921;-90
2023/04/04 04:50:16;;;;;;;;;;;;;;;4.01;nan;100270.66;4945689;29;20088;-89
2023/04/04 04:53:00;;;;;;;;;;;;;;;3.99;nan;100272.53;4945714;29;19922;-89
2023/04/04 04:55:45;;;;;;;;;;;;;;;4.01;nan;100268.06;4945595;29;19947;-89
2023/04/04 04:58:29;;;;;;;;;;;;;;;3.93;nan;100270.41;4946015;29;20329;-89
2023/04/04 05:01:13;;;;;;;;;;;;;;;3.99;nan;100272.53;4945137;29;19942;-88
2023/04/04 05:03:57;;;;;;;;;;;;;;;3.97;nan;100272.66;4945303;29;20284;-91
2023/04/04 05:06:42;;;;;;;;;;;;;;;3.95;nan;100271.13;4945454;29;19970;-89
2023/04/04 05:09:26;;;;;;;;;;;;;;;3.97;nan;100277.03;4945081;29;19968;-89
2023/04/04 05:12:10;;;;;;;;;;;;;;;3.96;nan;100276.19;4944927;29;19926;-89
2023/04/04 05:14:54;;;;;;;;;;;;;;;3.95;nan;100271.13;4945845;29;20013;-89
2023/04/04 05:17:39;;;;;;;;;;;;;;;3.94;nan;100274.69;4945728;29;20382;-89
2023/04/04 05:20:23;;;;;;;;;;;;;;;3.95;nan;100278.94;4946289;29;19965;-90
2023/04/04 05:23:07;;;;;;;;;;;;;;;3.82;nan;100286.84;4945217;29;19968;-90
2023/04/04 05:25:52;;;;;;;;;;;;;;;3.77;nan;100286.38;4946607;29;19945;-89
2023/04/04 05:28:36;;;;;;;;;;;;;;;3.77;nan;100284.63;4946162;29;19925;-89
2023/04/04 05:31:23;;;;;;;;;;;;;;;3.78;nan;100282.84;4945974;29;19921;-90
2023/04/04 05:34:07;;;;;;;;;;;;;;;3.74;nan;100282.28;4945549;29;20496;-89
2023/04/04 05:36:52;;;;;;;;;;;;;;;3.71;nan;100288.50;4946387;29;19965;-89
2023/04/04 05:39:36;;;;;;;;;;;;;;;3.75;nan;100294.31;4946087;29;19972;-90
2023/04/04 05:42:21;;;;;;;;;;;;;;;3.73;nan;100288.38;4945063;29;19965;-89
2023/04/04 05:45:05;;;;;;;;;;;;;;;3.67;nan;100299.25;4945707;29;20031;-89
2023/04/04 05:47:49;;;;;;;;;;;;;;;3.72;nan;100292.75;4946066;29;20009;-90
2023/04/04 05:57:49;;;;;;;;;;;;;;;3.71;nan;100306.69;4959287;29;19942;-90
2023/04/04 06:00:37;;;;;;;;;;;;;;;3.75;nan;100302.09;4945052;29;20325;-89
2023/04/04 06:03:21;;;;;;;;;;;;;;;3.70;nan;100297.25;4944591;29;19921;-90
2023/04/04 06:06:06;;;;;;;;;;;;;;;3.69;nan;100289.56;4945517;29;19921;-89
2023/04/04 06:08:50;;;;;;;;;;;;;;;3.69;nan;100286.97;4944737;29;19934;-90
2023/04/04 06:11:33;;;;;;;;;;;;;;;3.73;nan;100283.19;4944023;29;19921;-89
2023/04/04 06:14:17;;;;;;;;;;;;;;;3.79;nan;100284.47;4944766;29;19922;-90
2023/04/04 06:17:02;;;;;;;;;;;;;;;3.85;nan;100284.84;4944719;29;19921;-89
2023/04/04 06:19:46;;;;;;;;;;;;;;;3.88;nan;100275.16;4944358;29;19921;-90
2023/04/04 06:25:58;;;;;;;;;;;;;;;3.94;nan;100278.09;4960955;29;19937;-89
2023/04/04 06:28:58;;;;;;;;;;;;;;;4.00;nan;100275.00;4952365;29;19926;-89
2023/04/04 06:31:42;;;;;;;;;;;;;;;4.07;nan;100272.75;4945014;29;19921;-90
2023/04/04 06:34:27;;;;;;;;;;;;;;;3.95;nan;100276.34;4944146;29;20001;-90
2023/04/04 06:37:11;;;;;;;;;;;;;;;4.19;nan;100267.53;4944576;29;20009;-90
2023/04/04 06:39:55;;;;;;;;;;;;;;;4.30;nan;100264.88;4944093;29;20030;-90
2023/04/04 06:42:48;;;;;;;;;;;;;;;4.28;nan;100266.78;4945037;29;19920;-90
2023/04/04 06:45:34;;;;;;;;;;;;;;;4.28;nan;100265.03;4945968;29;20404;-90
2023/04/04 06:48:18;;;;;;;;;;;;;;;4.22;nan;100265.50;4947262;29;19925;-91
2023/04/04 06:58:42;;;;;;;;;;;;;;;4.47;nan;100258.34;4964738;29;19924;-90
2023/04/04 07:01:43;;;;;;;;;;;;;;;4.55;nan;100257.72;4957086;29;19906;-90
2023/04/04 07:04:38;;;;;;;;;;;;;;;4.58;nan;100263.47;4953099;29;20387;-90
2023/04/04 07:07:32;;;;;;;;;;;;;;;4.61;nan;100269.38;4951262;29;19996;-88
2023/04/04 07:10:16;;;;;;;;;;;;;;;4.69;nan;100265.19;4944907;29;20413;-91
2023/04/04 07:13:03;;;;;;;;;;;;;;;4.75;nan;100263.06;4945750;29;20372;-90
2023/04/04 07:15:48;;;;;;;;;;;;;;;4.82;nan;100267.66;4945206;29;19921;-89
2023/04/04 07:18:35;;;;;;;;;;;;;;;4.89;nan;100265.34;4945392;29;19921;-90
2023/04/04 07:21:19;;;;;;;;;;;;;;;4.92;nan;100272.91;4940090;29;19946;-89
2023/04/04 07:31:32;;;;;;;;;;;;;;;5.32;nan;100270.53;4906093;29;19978;-89
2023/04/04 07:34:19;;;;;;;;;;;;;;;5.38;nan;100270.00;4936471;29;19925;-89
2023/04/04 07:37:07;;;;;;;;;;;;;;;5.37;nan;100269.16;4943861;29;19917;-90
2023/04/04 07:39:51;;;;;;;;;;;;;;;5.33;nan;100267.78;4944239;29;19969;-89
2023/04/04 07:42:36;;;;;;;;;;;;;;;5.40;nan;100265.50;4943118;29;19921;-89
2023/04/04 07:52:41;;;;;;;;;;;;;;;5.61;nan;100270.66;4958092;29;19921;-89
2023/04/04 07:55:32;;;;;;;;;;;;;;;5.61;nan;100269.81;4943056;29;19942;-89
2023/04/04 07:58:20;;;;;;;;;;;;;;;5.71;nan;100268.09;4943559;29;20049;-89
2023/04/04 08:01:24;;;;;;;;;;;;;;;5.77;nan;100264.94;4943093;29;19921;-89
2023/04/04 08:10:49;;;;;;;;;;;;;;;5.96;nan;100258.94;4957298;29;19941;-89
2023/04/04 08:13:35;;;;;;;;;;;;;;;6.00;nan;100254.28;4943820;29;19925;-89
2023/04/04 08:16:19;;;;;;;;;;;;;;;6.10;nan;100259.56;4957550;29;19937;-86
2023/04/04 08:19:03;;;;;;;;;;;;;;;6.17;nan;100254.63;4946293;29;19938;-89
2023/04/04 08:21:48;;;;;;;;;;;;;;;6.15;nan;100246.94;4909066;29;19963;-87
2023/04/04 08:24:33;;;;;;;;;;;;;;;6.27;nan;100255.44;4920666;29;19941;-89
2023/04/04 08:27:18;;;;;;;;;;;;;;;6.37;nan;100261.50;4922100;29;20273;-89
2023/04/04 08:30:02;;;;;;;;;;;;;;;6.40;nan;100258.63;4907795;29;20389;-88
2023/04/04 08:32:47;;;;;;;;;;;;;;;6.51;nan;100265.47;4920314;29;20433;-89
2023/04/04 08:35:31;;;;;;;;;;;;;;;6.64;nan;100257.38;4920282;29;20285;-88
2023/04/04 08:38:16;;;;;;;;;;;;;;;6.66;nan;100258.06;4951569;29;20014;-89
2023/04/04 08:48:17;;;;;;;;;;;;;;;6.86;nan;100244.97;4952587;29;20013;-89
2023/04/04 08:51:03;;;;;;;;;;;;;;;6.98;nan;100243.88;4938935;29;20269;-89
2023/04/04 08:53:48;;;;;;;;;;;;;;;6.96;nan;100244.97;4939363;29;20021;-88
2023/04/04 08:56:34;;;;;;;;;;;;;;;7.01;nan;100245.38;4956006;29;20466;-88
2023/04/04 08:59:18;;;;;;;;;;;;;;;7.04;nan;100258.16;4941638;29;20477;-88
2023/04/04 09:02:08;;;;;;;;;;;;;;;7.22;nan;100252.19;4957467;29;19922;-91
2023/04/04 09:04:53;;;;;;;;;;;;;;;7.31;nan;100253.13;4944040;29;20010;-89
2023/04/04 09:07:37;;;;;;;;;;;;;;;7.26;nan;100241.28;4943476;29;19965;-89
2023/04/04 09:10:22;;;;;;;;;;;;;;;7.43;nan;100242.34;4940525;29;20029;-90
2023/04/04 09:13:06;;;;;;;;;;;;;;;7.44;nan;100240.53;4927057;29;20069;-89
2023/04/04 09:15:52;;;;;;;;;;;;;;;7.57;nan;100243.66;4928572;29;19922;-88
2023/04/04 09:18:36;;;;;;;;;;;;;;;7.63;nan;100246.66;4945014;29;20017;-88
2023/04/04 09:21:20;;;;;;;;;;;;;;;7.49;nan;100238.34;4944503;29;19913;-89
2023/04/04 09:24:04;;;;;;;;;;;;;;;7.70;nan;100232.06;4959487;29;19921;-91
2023/04/04 09:26:52;;;;;;;;;;;;;;;7.61;nan;100232.91;4944170;29;20013;-89
2023/04/04 09:29:40;;;;;;;;;;;;;;;7.75;nan;100236.81;4946090;29;19932;-90
2023/04/04 09:32:24;;;;;;;;;;;;;;;7.75;nan;100235.03;4946648;29;19978;-89
2023/04/04 09:35:09;;;;;;;;;;;;;;;7.94;nan;100228.03;4945806;29;19922;-88
2023/04/04 09:37:53;;;;;;;;;;;;;;;7.89;nan;100230.28;4946533;29;20488;-91
2023/04/04 09:40:39;;;;;;;;;;;;;;;8.02;nan;100230.72;4906998;29;19922;-90
2023/04/04 09:43:24;;;;;;;;;;;;;;;7.96;nan;100226.09;4950469;29;19946;-92
2023/04/04 09:46:08;;;;;;;;;;;;;;;8.05;nan;100217.34;4944598;29;19921;-89
2023/04/04 09:48:54;;;;;;;;;;;;;;;8.08;nan;100219.69;4946098;29;19925;-90
2023/04/04 09:51:40;;;;;;;;;;;;;;;8.25;nan;100218.03;4942981;29;19961;-90
2023/04/04 09:54:24;;;;;;;;;;;;;;;8.34;nan;100221.56;4944267;29;19922;-89
2023/04/04 09:57:08;;;;;;;;;;;;;;;8.21;nan;100218.50;4943606;29;19920;-89
2023/04/04 09:59:52;;;;;;;;;;;;;;;8.29;nan;100218.56;4944054;29;19921;-89
2023/04/04 10:02:37;;;;;;;;;;;;;;;8.35;nan;100217.97;4944872;29;19925;-90
2023/04/04 10:05:22;;;;;;;;;;;;;;;8.39;nan;100210.66;4959017;29;19925;-90
2023/04/04 10:08:32;;;;;;;;;;;;;;;8.39;nan;100203.59;4943524;29;20300;-90
2023/04/04 10:11:34;;;;;;;;;;;;;;;8.53;nan;100211.94;4959967;29;19928;-90
2023/04/04 10:14:32;;;;;;;;;;;;;;;8.54;nan;100209.13;4943595;29;20396;-91
2023/04/04 10:17:16;;;;;;;;;;;;;;;8.63;nan;100217.06;4943476;29;19942;-90
2023/04/04 10:20:03;;;;;;;;;;;;;;;8.74;nan;100208.94;4939190;29;19925;-90
2023/04/04 10:22:49;;;;;;;;;;;;;;;8.78;nan;100199.00;4942785;29;20392;-90
2023/04/04 10:25:33;;;;;;;;;;;;;;;8.81;nan;100209.16;4940190;29;19976;-90
2023/04/04 10:28:19;;;;;;;;;;;;;;;8.88;nan;100204.13;4942188;29;20057;-90
2023/04/04 10:31:06;;;;;;;;;;;;;;;8.89;nan;100196.13;4942566;29;19922;-90
2023/04/04 10:34:08;;;;;;;;;;;;;;;8.88;nan;100204.13;4942524;29;19921;-90
2023/04/04 10:36:57;;;;;;;;;;;;;;;9.03;nan;100201.75;4927911;29;19920;-90
2023/04/04 10:39:44;;;;;;;;;;;;;;;9.17;nan;100210.84;4942371;29;20380;-90
2023/04/04 10:42:30;;;;;;;;;;;;;;;9.23;nan;100203.16;4943386;29;19969;-90
2023/04/04 10:45:15;;;;;;;;;;;;;;;9.17;nan;100203.81;4943590;29;19937;-90
2023/04/04 10:48:01;;;;;;;;;;;;;;;9.29;nan;100207.81;4941700;29;19921;-90
2023/04/04 10:50:46;;;;;;;;;;;;;;;9.47;nan;100201.66;4942034;29;19921;-90
2023/04/04 10:53:31;;;;;;;;;;;;;;;9.54;nan;100204.47;4940850;29;20088;-90
2023/04/04 10:56:15;;;;;;;;;;;;;;;9.43;nan;100195.91;4941812;29;19921;-90
2023/04/04 10:59:09;;;;;;;;;;;;;;;9.37;nan;100193.91;4940387;29;19937;-89
2023/04/04 11:01:57;;;;;;;;;;;;;;;9.44;nan;100188.88;4942033;29;19937;-89
2023/04/04 11:04:45;;;;;;;;;;;;;;;9.64;nan;100196.47;4941981;29;19922;-89
2023/04/04 11:07:30;;;;;;;;;;;;;;;9.66;nan;100191.88;4940947;29;20268;-91
2023/04/04 11:10:28;;;;;;;;;;;;;;;9.66;nan;100181.41;4934249;29;19942;-91
2023/04/04 11:13:25;;;;;;;;;;;;;;;9.74;nan;100188.47;4952632;29;19973;-90
2023/04/04 11:16:15;;;;;;;;;;;;;;;9.81;nan;100185.00;4939146;29;19921;-89
2023/04/04 11:19:00;;;;;;;;;;;;;;;10.01;nan;100184.72;4931273;29;19966;-90
2023/04/04 11:21:45;;;;;;;;;;;;;;;10.00;nan;100180.44;4938861;29;20063;-89
2023/04/04 11:24:29;;;;;;;;;;;;;;;10.24;nan;100176.22;4941575;29;19964;-90
2023/04/04 11:27:17;;;;;;;;;;;;;;;10.12;nan;100170.44;4939567;29;19956;-90
2023/04/04 11:30:11;;;;;;;;;;;;;;;10.17;nan;100162.09;4939741;29;19968;-89
2023/04/04 11:32:58;;;;;;;;;;;;;;;10.29;nan;100155.53;4953758;29;19937;-89
2023/04/04 11:35:47;;;;;;;;;;;;;;;10.23;nan;100151.78;4944924;29;20008;-90
2023/04/04 11:42:13;;;;;;;;;;;;;;;10.33;nan;100150.81;4959889;29;19938;-91
2023/04/04 11:45:02;;;;;;;;;;;;;;;10.37;nan;100145.03;4951012;29;19938;-90
2023/04/04 11:48:16;;;;;;;;;;;;;;;10.45;nan;100148.69;4945737;29;20013;-91
2023/04/04 11:51:01;;;;;;;;;;;;;;;10.59;nan;100145.34;4963239;29;20022;-90
2023/04/04 11:53:46;;;;;;;;;;;;;;;10.65;nan;100146.50;5506546;23;19930;-89
2023/04/04 11:56:33;;;;;;;;;;;;;;;10.61;nan;100146.03;4946410;29;19925;-90
2023/04/04 11:59:21;;;;;;;;;;;;;;;10.52;nan;100136.53;4950108;29;19939;-90
2023/04/04 12:02:06;;;;;;;;;;;;;;;10.52;nan;100133.91;4946851;29;19926;-90
2023/04/04 12:04:50;;;;;;;;;;;;;;;10.63;nan;100123.06;4931737;29;19921;-90
2023/04/04 12:07:34;;;;;;;;;;;;;;;10.74;nan;100123.66;4943223;29;19960;-91
2023/04/04 12:10:18;;;;;;;;;;;;;;;10.83;nan;100123.47;4936344;29;19976;-90
2023/04/04 12:13:25;;;;;;;;;;;;;;;10.92;nan;100111.13;4910183;29;19921;-90
2023/04/04 12:27:35;;;;;;;;;;;;;;;;;;;;;
2023/04/04 12:44:52;;;;;;;;;;;;;;;11.42;nan;100069.66;4976305;29;19959;-91
2023/04/04 13:32:13;;;;;;;;;;;;;;;12.08;nan;100013.09;4976871;28;19921;-91
2023/04/04 13:35:01;;;;;;;;;;;;;;;12.27;nan;100026.72;4975839;29;20062;-91
2023/04/04 13:37:47;;;;;;;;;;;;;;;12.22;nan;100015.91;4962330;29;19926;-90
2023/04/04 13:40:35;;;;;;;;;;;;;;;12.25;nan;100007.66;4962545;29;19921;-91
2023/04/04 13:43:19;;;;;;;;;;;;;;;12.37;nan;100014.06;4954644;29;19925;-89
2023/04/04 13:46:03;;;;;;;;;;;;;;;12.49;nan;100018.88;4945547;29;19916;-89
2023/04/04 13:48:47;;;;;;;;;;;;;;;12.50;nan;100004.72;4944157;29;19986;-90
2023/04/04 13:58:55;;;;;;;;;;;;;;;12.85;nan;99999.69;4970545;29;19925;-92
2023/04/04 14:01:47;;;;;;;;;;;;;;;12.85;nan;99997.03;4974745;29;19941;-89
2023/04/04 14:04:33;;;;;;;;;;;;;;;12.84;nan;99990.94;4953199;29;19937;-90
2023/04/04 14:11:21;;;;;;;;;;;;;;;13.03;nan;99980.00;4960345;29;19925;-89
2023/04/04 14:17:56;;;;;;;;;;;;;;;13.05;nan;99985.91;4904787;29;19923;-91
2023/04/04 14:20:40;;;;;;;;;;;;;;;13.09;nan;99976.59;4943337;29;19932;-89
2023/04/04 14:23:24;;;;;;;;;;;;;;;13.06;nan;99971.72;4943684;29;19937;-90
2023/04/04 14:26:08;;;;;;;;;;;;;;;13.02;nan;99965.19;4943037;29;19981;-89
2023/04/04 14:28:52;;;;;;;;;;;;;;;13.12;nan;99960.41;4943459;29;19973;-89
2023/04/04 14:31:36;;;;;;;;;;;;;;;13.24;nan;99953.63;4957974;29;19961;-90
2023/04/04 14:34:20;;;;;;;;;;;;;;;13.23;nan;99956.44;4943281;29;19988;-90
2023/04/04 14:37:04;;;;;;;;;;;;;;;13.23;nan;99961.72;4956185;29;19978;-90
2023/04/04 14:39:49;;;;;;;;;;;;;;;13.29;nan;99961.00;4943053;29;20339;-90
2023/04/04 14:42:32;;;;;;;;;;;;;;;13.35;nan;99960.22;4943241;29;19921;-90
2023/04/04 14:45:17;;;;;;;;;;;;;;;13.38;nan;99948.50;4943388;29;19934;-91
2023/04/04 14:48:01;;;;;;;;;;;;;;;13.57;nan;99947.84;4943145;29;19966;-90
2023/04/04 14:50:45;;;;;;;;;;;;;;;13.46;nan;99945.72;4931324;29;19921;-90
2023/04/04 14:53:30;;;;;;;;;;;;;;;13.77;nan;99947.19;4947909;29;19953;-90
2023/04/04 14:56:14;;;;;;;;;;;;;;;13.70;nan;99947.13;4928945;29;19969;-90
2023/04/04 14:58:58;;;;;;;;;;;;;;;13.76;nan;99939.44;4942552;29;19921;-90
2023/04/04 15:01:42;;;;;;;;;;;;;;;13.85;nan;99943.56;4942593;29;20371;-91
2023/04/04 15:04:26;;;;;;;;;;;;;;;13.84;nan;99940.09;4943000;29;19921;-90
2023/04/04 15:07:10;;;;;;;;;;;;;;;14.01;nan;99931.88;4941369;29;19921;-90
2023/04/04 15:09:54;;;;;;;;;;;;;;;14.10;nan;99932.53;4942508;29;20277;-91
2023/04/04 15:13:01;;;;;;;;;;;;;;;14.00;nan;99919.69;4934844;29;19953;-90
2023/04/04 15:15:45;;;;;;;;;;;;;;;14.06;nan;99918.91;4954695;29;19929;-91
2023/04/04 15:18:29;;;;;;;;;;;;;;;13.88;nan;99915.97;4938969;29;19942;-89
2023/04/04 15:21:13;;;;;;;;;;;;;;;13.76;nan;99913.06;4937883;29;20268;-89
2023/04/04 15:23:57;;;;;;;;;;;;;;;13.81;nan;99906.19;4938931;28;20354;-88
2023/04/04 15:26:41;;;;;;;;;;;;;;;14.09;nan;99907.16;4940167;29;19933;-88
2023/04/04 15:29:25;;;;;;;;;;;;;;;14.13;nan;99903.09;4955218;29;19977;-88
2023/04/04 15:32:09;;;;;;;;;;;;;;;14.33;nan;99908.44;4937476;29;19932;-89
2023/04/04 15:34:54;;;;;;;;;;;;;;;14.38;nan;99900.78;4938338;29;21648;-87
2023/04/04 15:37:38;;;;;;;;;;;;;;;14.62;nan;99895.13;4937351;29;19933;-90
2023/04/04 15:40:23;;;;;;;;;;;;;;;14.52;nan;99900.78;4942032;29;19961;-89
2023/04/04 15:43:07;;;;;;;;;;;;;;;14.69;nan;99895.97;4936532;29;19922;-89
2023/04/04 15:45:51;;;;;;;;;;;;;;;14.79;nan;99890.31;4940522;29;20013;-89
2023/04/04 15:48:35;;;;;;;;;;;;;;;14.78;nan;99888.69;4940944;29;19925;-89
2023/04/04 15:51:20;;;;;;;;;;;;;;;14.92;nan;99890.31;4955063;29;19929;-89
2023/04/04 15:54:04;;;;;;;;;;;;;;;15.01;nan;99887.50;4939007;29;19938;-89
2023/04/04 15:56:49;;;;;;;;;;;;;;;14.82;nan;99887.28;4941498;29;19972;-89
2023/04/04 15:59:34;;;;;;;;;;;;;;;15.11;nan;99887.91;4938143;29;19921;-88
2023/04/04 16:02:18;;;;;;;;;;;;;;;15.06;nan;99883.25;4944437;29;19951;-89
2023/04/04 16:05:03;;;;;;;;;;;;;;;15.01;nan;99876.94;4942226;29;19921;-89
2023/04/04 16:07:47;;;;;;;;;;;;;;;15.11;nan;99858.81;4945458;29;19970;-92
2023/04/04 16:10:31;;;;;;;;;;;;;;;15.37;nan;99857.19;4953341;29;19970;-91
2023/04/04 16:13:15;;;;;;;;;;;;;;;15.27;nan;99847.81;4943252;29;19922;-88
2023/04/04 16:15:59;;;;;;;;;;;;;;;15.28;nan;99852.09;4943147;29;19922;-89
2023/04/04 16:18:43;;;;;;;;;;;;;;;15.37;nan;99849.25;4941557;29;19925;-88
2023/04/04 16:21:27;;;;;;;;;;;;;;;15.50;nan;99840.47;4942634;29;19926;-90
2023/04/04 16:24:12;;;;;;;;;;;;;;;15.66;nan;99825.97;4941599;29;19921;-90
2023/04/04 16:26:57;;;;;;;;;;;;;;;15.57;nan;99820.91;4954517;29;19921;-89
2023/04/04 16:29:40;;;;;;;;;;;;;;;15.65;nan;99833.09;4942186;29;19925;-92
2023/04/04 16:32:24;;;;;;;;;;;;;;;15.80;nan;99832.84;4943744;29;19990;-91
2023/04/04 16:35:08;;;;;;;;;;;;;;;15.61;nan;99831.88;4943977;28;19921;-92
2023/04/04 16:37:53;;;;;;;;;;;;;;;15.62;nan;99841.44;4944052;29;19937;-89
2023/04/04 16:40:38;;;;;;;;;;;;;;;15.79;nan;99844.44;4939019;29;20403;-87
2023/04/04 16:43:22;;;;;;;;;;;;;;;15.79;nan;99836.50;4942885;29;20272;-89
2023/04/04 16:46:06;;;;;;;;;;;;;;;15.90;nan;99831.59;4944158;29;20333;-89
2023/04/04 16:48:50;;;;;;;;;;;;;;;15.68;nan;99824.75;4944439;29;19929;-89
2023/04/04 16:55:10;;;;;;;;;;;;;;;15.53;nan;99811.75;4958861;29;20451;-89
2023/04/04 16:57:54;;;;;;;;;;;;;;;16.24;nan;99816.38;4944040;29;19937;-89
2023/04/04 17:00:38;;;;;;;;;;;;;;;16.38;nan;99825.03;4944882;29;19921;-89
2023/04/04 17:03:22;;;;;;;;;;;;;;;16.87;nan;99824.50;4934561;29;19988;-86
2023/04/04 17:06:06;;;;;;;;;;;;;;;17.24;nan;99814.00;4937626;29;20017;-87